sensor_id;sensor_type;location;lat;lon;timestamp;pressure;altitude;pressure_sealevel;temperature;humidity
27202;BME280;14717;46.924;15.474;2024-01-30T00:01:53;99875.72;;;-2.71;100.00
27202;BME280;14717;46.924;15.474;2024-01-30T00:04:18;99868.41;;;-2.78;100.00
27202;BME280;14717;46.924;15.474;2024-01-30T00:06:44;99870.13;;;-2.77;100.00
27202;BME280;14717;46.924;15.474;2024-01-30T00:09:09;99867.56;;;-2.79;100.00
27202;BME280;14717;46.924;15.474;2024-01-30T00:11:38;99874.19;;;-2.73;100.00
27202;BME280;14717;46.924;15.474;2024-01-30T00:14:04;99872.13;;;-2.79;100.00
27202;BME280;14717;46.924;15.474;2024-01-30T00:16:29;99871.94;;;-2.78;100.00
27202;BME280;14717;46.924;15.474;2024-01-30T00:18:55;99864.91;;;-2.71;100.00
27202;BME280;14717;46.924;15.474;2024-01-30T00:21:21;99866.28;;;-2.67;100.00
27202;BME280;14717;46.924;15.474;2024-01-30T00:23:47;99868.31;;;-2.69;100.00
27202;BME280;14717;46.924;15.474;2024-01-30T00:26:13;99869.63;;;-2.73;100.00
27202;BME280;14717;46.924;15.474;2024-01-30T00:28:40;99872.31;;;-2.73;100.00
27202;BME280;14717;46.924;15.474;2024-01-30T00:31:06;99878.50;;;-2.88;100.00
27202;BME280;14717;46.924;15.474;2024-01-30T00:33:31;99874.56;;;-2.94;100.00
27202;BME280;14717;46.924;15.474;2024-01-30T00:35:57;99870.53;;;-2.90;100.00
27202;BME280;14717;46.924;15.474;2024-01-30T00:38:22;99869.78;;;-2.99;100.00
27202;BME280;14717;46.924;15.474;2024-01-30T00:40:48;99868.50;;;-2.96;100.00
27202;BME280;14717;46.924;15.474;2024-01-30T00:43:13;99876.25;;;-2.93;100.00
27202;BME280;14717;46.924;15.474;2024-01-30T00:45:39;99879.63;;;-2.98;100.00
27202;BME280;14717;46.924;15.474;2024-01-30T00:48:04;99879.25;;;-3.03;100.00
27202;BME280;14717;46.924;15.474;2024-01-30T00:50:30;99875.19;;;-2.99;100.00
27202;BME280;14717;46.924;15.474;2024-01-30T00:52:55;99864.03;;;-3.04;100.00
27202;BME280;14717;46.924;15.474;2024-01-30T00:55:20;99879.88;;;-3.09;100.00
27202;BME280;14717;46.924;15.474;2024-01-30T00:57:46;99868.31;;;-3.19;100.00
27202;BME280;14717;46.924;15.474;2024-01-30T01:00:13;99873.50;;;-3.26;100.00
27202;BME280;14717;46.924;15.474;2024-01-30T01:02:41;99865.50;;;-3.10;100.00
27202;BME280;14717;46.924;15.474;2024-01-30T01:05:06;99863.81;;;-3.11;100.00
27202;BME280;14717;46.924;15.474;2024-01-30T01:07:32;99861.09;;;-3.11;100.00
27202;BME280;14717;46.924;15.474;2024-01-30T01:09:57;99855.22;;;-3.06;100.00
27202;BME280;14717;46.924;15.474;2024-01-30T01:12:22;99859.44;;;-3.12;100.00
27202;BME280;14717;46.924;15.474;2024-01-30T01:14:48;99859.81;;;-3.07;100.00
27202;BME280;14717;46.924;15.474;2024-01-30T01:17:13;99851.47;;;-3.13;100.00
27202;BME280;14717;46.924;15.474;2024-01-30T01:19:39;99857.06;;;-3.32;100.00
27202;BME280;14717;46.924;15.474;2024-01-30T01:22:04;99861.69;;;-3.50;100.00
27202;BME280;14717;46.924;15.474;2024-01-30T01:24:33;99868.00;;;-3.41;100.00
27202;BME280;14717;46.924;15.474;2024-01-30T01:26:58;99857.41;;;-3.35;100.00
27202;BME280;14717;46.924;15.474;2024-01-30T01:29:24;99857.66;;;-3.46;100.00
27202;BME280;14717;46.924;15.474;2024-01-30T01:31:57;99856.28;;;-3.50;100.00
27202;BME280;14717;46.924;15.474;2024-01-30T01:34:23;99856.97;;;-3.48;100.00
27202;BME280;14717;46.924;15.474;2024-01-30T01:36:51;99857.94;;;-3.49;100.00
27202;BME280;14717;46.924;15.474;2024-01-30T01:39:17;99851.94;;;-3.60;100.00
27202;BME280;14717;46.924;15.474;2024-01-30T01:41:42;99853.13;;;-3.63;100.00
27202;BME280;14717;46.924;15.474;2024-01-30T01:44:08;99855.06;;;-3.73;100.00
27202;BME280;14717;46.924;15.474;2024-01-30T01:46:34;99856.88;;;-3.73;100.00
27202;BME280;14717;46.924;15.474;2024-01-30T01:49:04;99854.00;;;-3.80;100.00
27202;BME280;14717;46.924;15.474;2024-01-30T01:51:31;99865.84;;;-3.73;100.00
27202;BME280;14717;46.924;15.474;2024-01-30T01:54:00;99856.44;;;-3.69;100.00
27202;BME280;14717;46.924;15.474;2024-01-30T01:56:27;99853.56;;;-3.84;100.00
27202;BME280;14717;46.924;15.474;2024-01-30T01:58:54;99858.84;;;-4.00;100.00
27202;BME280;14717;46.924;15.474;2024-01-30T02:01:21;99856.81;;;-3.98;100.00
27202;BME280;14717;46.924;15.474;2024-01-30T02:03:47;99855.28;;;-4.01;100.00
27202;BME280;14717;46.924;15.474;2024-01-30T02:06:16;99851.81;;;-3.93;100.00
27202;BME280;14717;46.924;15.474;2024-01-30T02:08:42;99858.91;;;-3.75;100.00
27202;BME280;14717;46.924;15.474;2024-01-30T02:11:08;99856.34;;;-3.77;100.00
27202;BME280;14717;46.924;15.474;2024-01-30T02:13:35;99857.75;;;-3.73;100.00
27202;BME280;14717;46.924;15.474;2024-01-30T02:16:00;99854.25;;;-3.65;100.00
27202;BME280;14717;46.924;15.474;2024-01-30T02:18:26;99855.28;;;-3.83;100.00
27202;BME280;14717;46.924;15.474;2024-01-30T02:20:53;99856.13;;;-3.83;100.00
27202;BME280;14717;46.924;15.474;2024-01-30T02:23:19;99855.06;;;-3.73;100.00
27202;BME280;14717;46.924;15.474;2024-01-30T02:25:45;99855.06;;;-3.73;100.00
27202;BME280;14717;46.924;15.474;2024-01-30T02:28:14;99845.78;;;-3.70;100.00
27202;BME280;14717;46.924;15.474;2024-01-30T02:30:40;99848.41;;;-3.78;100.00
27202;BME280;14717;46.924;15.474;2024-01-30T02:33:05;99851.19;;;-3.70;100.00
27202;BME280;14717;46.924;15.474;2024-01-30T02:35:31;99840.91;;;-3.67;100.00
27202;BME280;14717;46.924;15.474;2024-01-30T02:37:56;99842.47;;;-3.82;100.00
27202;BME280;14717;46.924;15.474;2024-01-30T02:40:22;99847.97;;;-3.91;100.00
27202;BME280;14717;46.924;15.474;2024-01-30T02:42:47;99839.09;;;-3.83;100.00
27202;BME280;14717;46.924;15.474;2024-01-30T02:45:13;99838.63;;;-3.79;100.00
27202;BME280;14717;46.924;15.474;2024-01-30T02:47:39;99837.84;;;-3.72;100.00
27202;BME280;14717;46.924;15.474;2024-01-30T02:50:05;99835.84;;;-3.70;100.00
27202;BME280;14717;46.924;15.474;2024-01-30T02:52:30;99847.56;;;-3.79;100.00
27202;BME280;14717;46.924;15.474;2024-01-30T02:54:56;99837.63;;;-3.95;100.00
27202;BME280;14717;46.924;15.474;2024-01-30T02:57:21;99840.19;;;-3.94;100.00
27202;BME280;14717;46.924;15.474;2024-01-30T02:59:46;99838.56;;;-3.87;100.00
27202;BME280;14717;46.924;15.474;2024-01-30T03:02:12;99838.25;;;-3.84;100.00
27202;BME280;14717;46.924;15.474;2024-01-30T03:04:37;99838.56;;;-3.87;100.00
27202;BME280;14717;46.924;15.474;2024-01-30T03:07:02;99843.13;;;-3.87;100.00
27202;BME280;14717;46.924;15.474;2024-01-30T03:09:28;99832.00;;;-3.84;100.00
27202;BME280;14717;46.924;15.474;2024-01-30T03:11:54;99832.31;;;-3.87;100.00
27202;BME280;14717;46.924;15.474;2024-01-30T03:14:19;99833.88;;;-4.02;100.00
27202;BME280;14717;46.924;15.474;2024-01-30T03:16:44;99836.22;;;-4.17;100.00
27202;BME280;14717;46.924;15.474;2024-01-30T03:19:10;99839.38;;;-4.21;100.00
27202;BME280;14717;46.924;15.474;2024-01-30T03:21:35;99829.06;;;-4.08;100.00
27202;BME280;14717;46.924;15.474;2024-01-30T03:24:01;99823.69;;;-4.08;100.00
27202;BME280;14717;46.924;15.474;2024-01-30T03:26:26;99825.00;;;-4.12;100.00
27202;BME280;14717;46.924;15.474;2024-01-30T03:28:51;99826.59;;;-4.19;100.00
27202;BME280;14717;46.924;15.474;2024-01-30T03:31:17;99828.22;;;-4.09;100.00
27202;BME280;14717;46.924;15.474;2024-01-30T03:33:42;99817.16;;;-4.06;100.00
27202;BME280;14717;46.924;15.474;2024-01-30T03:36:08;99828.28;;;-4.18;100.00
27202;BME280;14717;46.924;15.474;2024-01-30T03:38:34;99824.47;;;-4.16;100.00
27202;BME280;14717;46.924;15.474;2024-01-30T03:41:00;99821.66;;;-4.06;100.00
27202;BME280;14717;46.924;15.474;2024-01-30T03:43:26;99823.75;;;-4.18;100.00
27202;BME280;14717;46.924;15.474;2024-01-30T03:45:51;99821.53;;;-4.22;100.00
27202;BME280;14717;46.924;15.474;2024-01-30T03:48:16;99825.75;;;-4.20;100.00
27202;BME280;14717;46.924;15.474;2024-01-30T03:50:42;99823.09;;;-4.29;100.00
27202;BME280;14717;46.924;15.474;2024-01-30T03:53:07;99823.84;;;-4.27;100.00
27202;BME280;14717;46.924;15.474;2024-01-30T03:55:33;99816.81;;;-4.20;100.00
27202;BME280;14717;46.924;15.474;2024-01-30T03:57:58;99833.50;;;-4.34;100.00
27202;BME280;14717;46.924;15.474;2024-01-30T04:00:23;99836.69;;;-4.38;100.00
27202;BME280;14717;46.924;15.474;2024-01-30T04:02:49;99828.50;;;-4.46;100.00
27202;BME280;14717;46.924;15.474;2024-01-30T04:05:16;99825.22;;;-4.40;100.00
27202;BME280;14717;46.924;15.474;2024-01-30T04:07:41;99830.75;;;-4.42;100.00
27202;BME280;14717;46.924;15.474;2024-01-30T04:10:07;99820.25;;;-4.45;100.00
27202;BME280;14717;46.924;15.474;2024-01-30T04:12:32;99829.63;;;-4.49;100.00
27202;BME280;14717;46.924;15.474;2024-01-30T04:14:58;99831.28;;;-4.38;100.00
27202;BME280;14717;46.924;15.474;2024-01-30T04:17:23;99828.84;;;-4.32;100.00
27202;BME280;14717;46.924;15.474;2024-01-30T04:19:49;99824.44;;;-4.33;100.00
27202;BME280;14717;46.924;15.474;2024-01-30T04:22:14;99830.75;;;-4.42;100.00
27202;BME280;14717;46.924;15.474;2024-01-30T04:24:39;99815.56;;;-4.43;100.00
27202;BME280;14717;46.924;15.474;2024-01-30T04:27:05;99821.47;;;-4.57;100.00
27202;BME280;14717;46.924;15.474;2024-01-30T04:29:30;99826.88;;;-4.57;100.00
27202;BME280;14717;46.924;15.474;2024-01-30T04:31:57;99830.59;;;-4.40;100.00
27202;BME280;14717;46.924;15.474;2024-01-30T04:34:22;99824.13;;;-4.30;100.00
27202;BME280;14717;46.924;15.474;2024-01-30T04:36:47;99826.97;;;-4.31;100.00
27202;BME280;14717;46.924;15.474;2024-01-30T04:39:13;99829.34;;;-4.46;100.00
27202;BME280;14717;46.924;15.474;2024-01-30T04:41:38;99828.50;;;-4.46;100.00
27202;BME280;14717;46.924;15.474;2024-01-30T04:44:03;99820.16;;;-4.53;100.00
27202;BME280;14717;46.924;15.474;2024-01-30T04:46:29;99825.59;;;-4.62;100.00
27202;BME280;14717;46.924;15.474;2024-01-30T04:48:54;99828.59;;;-4.65;100.00
27202;BME280;14717;46.924;15.474;2024-01-30T04:51:19;99831.47;;;-4.66;100.00
27202;BME280;14717;46.924;15.474;2024-01-30T04:53:45;99825.34;;;-4.68;100.00
27202;BME280;14717;46.924;15.474;2024-01-30T04:56:10;99832.03;;;-4.72;100.00
27202;BME280;14717;46.924;15.474;2024-01-30T04:58:36;99837.22;;;-4.88;100.00
27202;BME280;14717;46.924;15.474;2024-01-30T05:01:02;99833.34;;;-4.76;100.00
27202;BME280;14717;46.924;15.474;2024-01-30T05:03:27;99833.13;;;-4.66;100.00
27202;BME280;14717;46.924;15.474;2024-01-30T05:05:53;99838.63;;;-4.58;100.00
27202;BME280;14717;46.924;15.474;2024-01-30T05:08:18;99839.31;;;-4.56;100.00
27202;BME280;14717;46.924;15.474;2024-01-30T05:10:43;99836.09;;;-4.59;100.00
27202;BME280;14717;46.924;15.474;2024-01-30T05:13:09;99839.47;;;-4.57;100.00
27202;BME280;14717;46.924;15.474;2024-01-30T05:15:35;99840.63;;;-4.60;100.00
27202;BME280;14717;46.924;15.474;2024-01-30T05:18:00;99842.63;;;-4.62;100.00
27202;BME280;14717;46.924;15.474;2024-01-30T05:20:26;99844.22;;;-4.68;100.00
27202;BME280;14717;46.924;15.474;2024-01-30T05:22:53;99845.13;;;-4.77;100.00
27202;BME280;14717;46.924;15.474;2024-01-30T05:25:19;99833.44;;;-4.68;100.00
27202;BME280;14717;46.924;15.474;2024-01-30T05:27:44;99839.06;;;-4.62;100.00
27202;BME280;14717;46.924;15.474;2024-01-30T05:30:10;99842.06;;;-4.65;100.00
27202;BME280;14717;46.924;15.474;2024-01-30T05:32:35;99842.53;;;-4.69;100.00
27202;BME280;14717;46.924;15.474;2024-01-30T05:35:01;99848.25;;;-4.82;100.00
27202;BME280;14717;46.924;15.474;2024-01-30T05:37:27;99852.22;;;-4.76;100.00
27202;BME280;14717;46.924;15.474;2024-01-30T05:39:52;99853.16;;;-4.68;100.00
27202;BME280;14717;46.924;15.474;2024-01-30T05:42:17;99844.47;;;-4.62;100.00
27202;BME280;14717;46.924;15.474;2024-01-30T05:44:43;99843.63;;;-4.63;100.00
27202;BME280;14717;46.924;15.474;2024-01-30T05:47:08;99856.28;;;-4.72;100.00
27202;BME280;14717;46.924;15.474;2024-01-30T05:49:33;99842.69;;;-4.71;100.00
27202;BME280;14717;46.924;15.474;2024-01-30T05:52:00;99842.53;;;-4.69;100.00
27202;BME280;14717;46.924;15.474;2024-01-30T05:54:26;99845.47;;;-4.63;100.00
27202;BME280;14717;46.924;15.474;2024-01-30T05:56:51;99841.91;;;-4.64;100.00
27202;BME280;14717;46.924;15.474;2024-01-30T05:59:16;99838.53;;;-4.66;100.00
27202;BME280;14717;46.924;15.474;2024-01-30T06:01:46;99838.38;;;-4.64;100.00
27202;BME280;14717;46.924;15.474;2024-01-30T06:04:12;99835.28;;;-4.69;100.00
27202;BME280;14717;46.924;15.474;2024-01-30T06:06:37;99840.53;;;-4.67;100.00
27202;BME280;14717;46.924;15.474;2024-01-30T06:09:02;99846.91;;;-4.68;100.00
27202;BME280;14717;46.924;15.474;2024-01-30T06:11:28;99849.94;;;-4.71;100.00
27202;BME280;14717;46.924;15.474;2024-01-30T06:13:53;99845.09;;;-4.68;100.00
27202;BME280;14717;46.924;15.474;2024-01-30T06:16:18;99848.47;;;-4.66;100.00
27202;BME280;14717;46.924;15.474;2024-01-30T06:18:46;99840.31;;;-4.83;100.00
27202;BME280;14717;46.924;15.474;2024-01-30T06:21:12;99851.34;;;-4.77;100.00
27202;BME280;14717;46.924;15.474;2024-01-30T06:23:38;99845.16;;;-4.87;100.00
27202;BME280;14717;46.924;15.474;2024-01-30T06:26:03;99851.00;;;-4.91;100.00
27202;BME280;14717;46.924;15.474;2024-01-30T06:28:29;99856.03;;;-4.79;100.00
27202;BME280;14717;46.924;15.474;2024-01-30T06:30:54;99848.22;;;-4.72;100.00
27202;BME280;14717;46.924;15.474;2024-01-30T06:33:19;99846.91;;;-4.68;100.00
27202;BME280;14717;46.924;15.474;2024-01-30T06:35:45;99848.31;;;-4.65;100.00
27202;BME280;14717;46.924;15.474;2024-01-30T06:38:11;99847.38;;;-4.73;100.00
27202;BME280;14717;46.924;15.474;2024-01-30T06:40:36;99857.00;;;-4.70;100.00
27202;BME280;14717;46.924;15.474;2024-01-30T06:43:03;99851.06;;;-4.74;100.00
27202;BME280;14717;46.924;15.474;2024-01-30T06:45:29;99855.47;;;-4.73;100.00
27202;BME280;14717;46.924;15.474;2024-01-30T06:47:54;99846.75;;;-4.67;100.00
27202;BME280;14717;46.924;15.474;2024-01-30T06:50:20;99860.78;;;-4.64;100.00
27202;BME280;14717;46.924;15.474;2024-01-30T06:52:45;99856.13;;;-4.62;100.00
27202;BME280;14717;46.924;15.474;2024-01-30T06:55:11;99861.72;;;-4.82;100.00
27202;BME280;14717;46.924;15.474;2024-01-30T06:57:36;99857.50;;;-4.84;100.00
27202;BME280;14717;46.924;15.474;2024-01-30T07:00:02;99861.13;;;-4.76;100.00
27202;BME280;14717;46.924;15.474;2024-01-30T07:02:27;99862.78;;;-4.66;100.00
27202;BME280;14717;46.924;15.474;2024-01-30T07:04:53;99865.63;;;-4.67;100.00
27202;BME280;14717;46.924;15.474;2024-01-30T07:07:18;99866.72;;;-4.60;100.00
27202;BME280;14717;46.924;15.474;2024-01-30T07:09:44;99854.91;;;-4.50;100.00
27202;BME280;14717;46.924;15.474;2024-01-30T07:12:09;99859.28;;;-4.49;100.00
27202;BME280;14717;46.924;15.474;2024-01-30T07:14:35;99854.28;;;-4.44;100.00
27202;BME280;14717;46.924;15.474;2024-01-30T07:17:00;99852.31;;;-4.42;100.00
27202;BME280;14717;46.924;15.474;2024-01-30T07:19:26;99860.72;;;-4.27;100.00
27202;BME280;14717;46.924;15.474;2024-01-30T07:21:51;99862.22;;;-4.16;100.00
27202;BME280;14717;46.924;15.474;2024-01-30T07:24:16;99856.97;;;-4.17;100.00
27202;BME280;14717;46.924;15.474;2024-01-30T07:26:42;99859.56;;;-4.25;100.00
27202;BME280;14717;46.924;15.474;2024-01-30T07:29:07;99861.06;;;-4.13;100.00
27202;BME280;14717;46.924;15.474;2024-01-30T07:31:32;99863.75;;;-4.13;100.00
27202;BME280;14717;46.924;15.474;2024-01-30T07:33:58;99865.59;;;-3.96;100.00
27202;BME280;14717;46.924;15.474;2024-01-30T07:36:23;99870.09;;;-3.87;100.00
27202;BME280;14717;46.924;15.474;2024-01-30T07:38:48;99871.03;;;-3.79;100.00
27202;BME280;14717;46.924;15.474;2024-01-30T07:41:14;99860.84;;;-3.68;100.00
27202;BME280;14717;46.924;15.474;2024-01-30T07:43:39;99868.69;;;-3.57;100.00
27202;BME280;14717;46.924;15.474;2024-01-30T07:46:04;99869.44;;;-3.47;100.00
27202;BME280;14717;46.924;15.474;2024-01-30T07:48:34;99867.28;;;-3.43;100.00
27202;BME280;14717;46.924;15.474;2024-01-30T07:50:59;99867.19;;;-3.34;100.00
27202;BME280;14717;46.924;15.474;2024-01-30T07:53:25;99867.41;;;-3.28;100.00
27202;BME280;14717;46.924;15.474;2024-01-30T07:55:52;99868.00;;;-3.16;100.00
27202;BME280;14717;46.924;15.474;2024-01-30T07:58:17;99862.88;;;-3.02;100.00
27202;BME280;14717;46.924;15.474;2024-01-30T08:00:43;99867.00;;;-2.90;100.00
27202;BME280;14717;46.924;15.474;2024-01-30T08:03:08;99865.72;;;-2.78;100.00
27202;BME280;14717;46.924;15.474;2024-01-30T08:05:33;99872.53;;;-2.66;100.00
27202;BME280;14717;46.924;15.474;2024-01-30T08:07:59;99872.94;;;-2.54;100.00
27202;BME280;14717;46.924;15.474;2024-01-30T08:10:24;99872.50;;;-2.41;100.00
27202;BME280;14717;46.924;15.474;2024-01-30T08:12:49;99865.47;;;-2.26;100.00
27202;BME280;14717;46.924;15.474;2024-01-30T08:15:15;99870.53;;;-2.15;100.00
27202;BME280;14717;46.924;15.474;2024-01-30T08:17:40;99867.03;;;-2.08;100.00
27202;BME280;14717;46.924;15.474;2024-01-30T08:20:06;99867.75;;;-1.90;100.00
27202;BME280;14717;46.924;15.474;2024-01-30T08:22:33;99870.50;;;-1.82;100.00
27202;BME280;14717;46.924;15.474;2024-01-30T08:24:58;99860.34;;;-1.72;100.00
27202;BME280;14717;46.924;15.474;2024-01-30T08:27:24;99867.47;;;-1.56;100.00
27202;BME280;14717;46.924;15.474;2024-01-30T08:29:49;99866.97;;;-1.43;100.00
27202;BME280;14717;46.924;15.474;2024-01-30T08:32:15;99871.38;;;-1.27;100.00
27202;BME280;14717;46.924;15.474;2024-01-30T08:34:40;99868.66;;;-1.11;100.00
27202;BME280;14717;46.924;15.474;2024-01-30T08:37:06;99866.25;;;-0.98;100.00
27202;BME280;14717;46.924;15.474;2024-01-30T08:39:31;99854.03;;;-0.86;100.00
27202;BME280;14717;46.924;15.474;2024-01-30T08:41:56;99853.34;;;-0.72;100.00
27202;BME280;14717;46.924;15.474;2024-01-30T08:44:23;99850.91;;;-0.59;100.00
27202;BME280;14717;46.924;15.474;2024-01-30T08:46:48;99856.63;;;-0.46;100.00
27202;BME280;14717;46.924;15.474;2024-01-30T08:49:16;99849.13;;;-0.37;100.00
27202;BME280;14717;46.924;15.474;2024-01-30T08:51:42;99851.47;;;-0.26;100.00
27202;BME280;14717;46.924;15.474;2024-01-30T08:54:07;99837.47;;;-0.15;100.00
27202;BME280;14717;46.924;15.474;2024-01-30T08:56:33;99841.22;;;-0.08;100.00
27202;BME280;14717;46.924;15.474;2024-01-30T08:58:58;99851.91;;;0.16;100.00
27202;BME280;14717;46.924;15.474;2024-01-30T09:01:24;99844.69;;;0.31;100.00
27202;BME280;14717;46.924;15.474;2024-01-30T09:03:50;99848.25;;;0.53;100.00
27202;BME280;14717;46.924;15.474;2024-01-30T09:06:15;99844.84;;;0.59;100.00
27202;BME280;14717;46.924;15.474;2024-01-30T09:08:41;99836.03;;;0.72;100.00
27202;BME280;14717;46.924;15.474;2024-01-30T09:11:10;99841.91;;;0.83;100.00
27202;BME280;14717;46.924;15.474;2024-01-30T09:13:36;99835.34;;;0.92;100.00
27202;BME280;14717;46.924;15.474;2024-01-30T09:16:01;99841.38;;;1.02;100.00
27202;BME280;14717;46.924;15.474;2024-01-30T09:18:26;99846.38;;;1.13;100.00
27202;BME280;14717;46.924;15.474;2024-01-30T09:20:52;99839.91;;;1.28;100.00
27202;BME280;14717;46.924;15.474;2024-01-30T09:23:17;99836.00;;;1.45;100.00
27202;BME280;14717;46.924;15.474;2024-01-30T09:25:44;99836.44;;;1.63;100.00
27202;BME280;14717;46.924;15.474;2024-01-30T09:28:10;99834.09;;;1.74;100.00
27202;BME280;14717;46.924;15.474;2024-01-30T09:30:35;99840.50;;;1.81;100.00
27202;BME280;14717;46.924;15.474;2024-01-30T09:33:00;99836.63;;;1.90;100.00
27202;BME280;14717;46.924;15.474;2024-01-30T09:35:26;99839.44;;;1.96;99.69
27202;BME280;14717;46.924;15.474;2024-01-30T09:37:51;99836.88;;;2.09;98.40
27202;BME280;14717;46.924;15.474;2024-01-30T09:40:17;99843.16;;;2.10;96.12
27202;BME280;14717;46.924;15.474;2024-01-30T09:42:46;99833.34;;;2.29;97.54
27202;BME280;14717;46.924;15.474;2024-01-30T09:45:13;99831.13;;;2.39;93.77
27202;BME280;14717;46.924;15.474;2024-01-30T09:47:43;99825.31;;;2.63;94.50
27202;BME280;14717;46.924;15.474;2024-01-30T09:50:10;99833.03;;;2.59;92.25
27202;BME280;14717;46.924;15.474;2024-01-30T09:52:36;99828.66;;;2.86;94.18
27202;BME280;14717;46.924;15.474;2024-01-30T09:55:02;99828.41;;;3.01;92.42
27202;BME280;14717;46.924;15.474;2024-01-30T09:57:28;99827.19;;;3.10;91.26
27202;BME280;14717;46.924;15.474;2024-01-30T09:59:53;99814.72;;;3.22;90.63
27202;BME280;14717;46.924;15.474;2024-01-30T10:02:22;99805.50;;;3.30;89.18
27202;BME280;14717;46.924;15.474;2024-01-30T10:04:49;99808.44;;;3.28;87.17
27202;BME280;14717;46.924;15.474;2024-01-30T10:07:15;99810.94;;;3.23;91.26
27202;BME280;14717;46.924;15.474;2024-01-30T10:09:40;99811.63;;;3.32;88.34
27202;BME280;14717;46.924;15.474;2024-01-30T10:12:06;99810.78;;;3.65;89.61
27202;BME280;14717;46.924;15.474;2024-01-30T10:14:31;99806.59;;;3.69;85.57
27202;BME280;14717;46.924;15.474;2024-01-30T10:16:57;99817.03;;;3.92;83.49
27202;BME280;14717;46.924;15.474;2024-01-30T10:19:23;99802.59;;;4.05;83.26
27202;BME280;14717;46.924;15.474;2024-01-30T10:21:49;99798.03;;;4.24;81.86
27202;BME280;14717;46.924;15.474;2024-01-30T10:24:14;99805.22;;;4.38;80.95
27202;BME280;14717;46.924;15.474;2024-01-30T10:26:40;99793.66;;;4.49;81.06
27202;BME280;14717;46.924;15.474;2024-01-30T10:29:05;99790.53;;;4.59;83.79
27202;BME280;14717;46.924;15.474;2024-01-30T10:31:31;99776.63;;;4.54;82.35
27202;BME280;14717;46.924;15.474;2024-01-30T10:33:56;99791.78;;;4.50;81.64
27202;BME280;14717;46.924;15.474;2024-01-30T10:36:27;99790.31;;;4.66;81.48
27202;BME280;14717;46.924;15.474;2024-01-30T10:38:55;99781.88;;;4.62;80.02
27202;BME280;14717;46.924;15.474;2024-01-30T10:41:26;99774.34;;;4.64;79.72
27202;BME280;14717;46.924;15.474;2024-01-30T10:43:59;99774.13;;;4.59;77.85
27202;BME280;14717;46.924;15.474;2024-01-30T10:46:31;99769.06;;;4.56;77.81
27202;BME280;14717;46.924;15.474;2024-01-30T10:48:58;99769.50;;;4.72;75.82
27202;BME280;14717;46.924;15.474;2024-01-30T10:51:28;99764.47;;;4.88;74.67
27202;BME280;14717;46.924;15.474;2024-01-30T10:53:55;99767.78;;;5.22;75.10
27202;BME280;14717;46.924;15.474;2024-01-30T10:56:21;99761.06;;;5.25;71.27
27202;BME280;14717;46.924;15.474;2024-01-30T10:58:51;99758.94;;;5.07;69.18
27202;BME280;14717;46.924;15.474;2024-01-30T11:01:21;99753.88;;;5.17;69.80
27202;BME280;14717;46.924;15.474;2024-01-30T11:03:50;99745.25;;;5.20;69.69
27202;BME280;14717;46.924;15.474;2024-01-30T11:06:16;99755.09;;;5.47;70.59
27202;BME280;14717;46.924;15.474;2024-01-30T11:08:44;99738.41;;;5.61;70.22
27202;BME280;14717;46.924;15.474;2024-01-30T11:11:10;99733.63;;;5.38;74.86
27202;BME280;14717;46.924;15.474;2024-01-30T11:13:36;99730.59;;;5.65;75.99
27202;BME280;14717;46.924;15.474;2024-01-30T11:16:02;99728.03;;;5.70;73.65
27202;BME280;14717;46.924;15.474;2024-01-30T11:18:32;99730.69;;;5.46;73.27
27202;BME280;14717;46.924;15.474;2024-01-30T11:20:59;99726.41;;;5.62;74.37
27202;BME280;14717;46.924;15.474;2024-01-30T11:23:26;99724.03;;;5.72;74.01
27202;BME280;14717;46.924;15.474;2024-01-30T11:25:52;99726.09;;;5.90;70.74
27202;BME280;14717;46.924;15.474;2024-01-30T11:28:18;99717.41;;;5.99;69.64
27202;BME280;14717;46.924;15.474;2024-01-30T11:30:44;99718.59;;;6.09;68.51
27202;BME280;14717;46.924;15.474;2024-01-30T11:33:11;99714.41;;;6.07;67.91
27202;BME280;14717;46.924;15.474;2024-01-30T11:35:41;99720.16;;;6.36;67.48
27202;BME280;14717;46.924;15.474;2024-01-30T11:38:09;99706.31;;;6.25;65.29
27202;BME280;14717;46.924;15.474;2024-01-30T11:40:36;99705.41;;;6.31;65.24
27202;BME280;14717;46.924;15.474;2024-01-30T11:43:04;99701.69;;;6.19;63.56
27202;BME280;14717;46.924;15.474;2024-01-30T11:45:30;99701.00;;;6.30;64.32
27202;BME280;14717;46.924;15.474;2024-01-30T11:47:56;99688.38;;;6.53;64.31
27202;BME280;14717;46.924;15.474;2024-01-30T11:50:22;99692.16;;;6.52;61.88
27202;BME280;14717;46.924;15.474;2024-01-30T11:52:48;99684.97;;;6.57;61.98
27202;BME280;14717;46.924;15.474;2024-01-30T11:55:14;99685.63;;;6.53;63.18
27202;BME280;14717;46.924;15.474;2024-01-30T11:57:40;99687.97;;;6.49;61.71
27202;BME280;14717;46.924;15.474;2024-01-30T12:00:06;99687.06;;;6.55;62.02
27202;BME280;14717;46.924;15.474;2024-01-30T12:02:42;99687.09;;;6.49;63.16
27202;BME280;14717;46.924;15.474;2024-01-30T12:05:07;99675.72;;;6.45;61.38
27202;BME280;14717;46.924;15.474;2024-01-30T12:07:33;99676.38;;;6.72;62.45
27202;BME280;14717;46.924;15.474;2024-01-30T12:09:59;99673.91;;;6.88;61.00
27202;BME280;14717;46.924;15.474;2024-01-30T12:12:28;99667.41;;;7.07;60.87
27202;BME280;14717;46.924;15.474;2024-01-30T12:14:55;99660.69;;;7.20;60.48
27202;BME280;14717;46.924;15.474;2024-01-30T12:17:31;99653.66;;;7.07;59.27
27202;BME280;14717;46.924;15.474;2024-01-30T12:20:13;99654.72;;;7.06;61.34
27202;BME280;14717;46.924;15.474;2024-01-30T12:22:43;99651.59;;;7.20;60.20
27202;BME280;14717;46.924;15.474;2024-01-30T12:25:13;99652.16;;;7.28;59.67
27202;BME280;14717;46.924;15.474;2024-01-30T12:27:39;99651.38;;;7.21;58.28
27202;BME280;14717;46.924;15.474;2024-01-30T12:30:08;99648.25;;;7.36;57.68
27202;BME280;14717;46.924;15.474;2024-01-30T12:32:38;99649.56;;;7.33;57.49
27202;BME280;14717;46.924;15.474;2024-01-30T12:35:07;99644.81;;;7.40;58.53
27202;BME280;14717;46.924;15.474;2024-01-30T12:37:33;99644.41;;;7.19;57.36
27202;BME280;14717;46.924;15.474;2024-01-30T12:39:59;99643.44;;;7.31;59.12